sensor_id;sensor_type;location;lat;lon;timestamp;temperature;humidity
210;DHT22;90;48.810;9.120;2023-11-18T00:02:07;6.60;96.10
210;DHT22;90;48.810;9.120;2023-11-18T00:04:35;6.60;96.20
210;DHT22;90;48.810;9.120;2023-11-18T00:07:02;6.60;95.40
210;DHT22;90;48.810;9.120;2023-11-18T00:09:29;6.60;95.40
210;DHT22;90;48.810;9.120;2023-11-18T00:11:56;6.60;94.80
210;DHT22;90;48.810;9.120;2023-11-18T00:14:23;6.70;94.60
210;DHT22;90;48.810;9.120;2023-11-18T00:16:50;6.60;94.50
210;DHT22;90;48.810;9.120;2023-11-18T00:19:16;6.50;94.80
210;DHT22;90;48.810;9.120;2023-11-18T00:21:45;6.50;95.10
210;DHT22;90;48.810;9.120;2023-11-18T00:24:11;6.50;95.00
210;DHT22;90;48.810;9.120;2023-11-18T00:26:39;6.50;95.10
210;DHT22;90;48.810;9.120;2023-11-18T00:29:06;6.50;95.00
210;DHT22;90;48.810;9.120;2023-11-18T00:31:34;6.50;95.10
210;DHT22;90;48.810;9.120;2023-11-18T00:34:00;6.50;95.00
210;DHT22;90;48.810;9.120;2023-11-18T00:36:27;6.60;94.70
210;DHT22;90;48.810;9.120;2023-11-18T00:38:56;6.50;94.80
210;DHT22;90;48.810;9.120;2023-11-18T00:41:22;6.50;94.90
210;DHT22;90;48.810;9.120;2023-11-18T00:43:49;6.50;95.00
210;DHT22;90;48.810;9.120;2023-11-18T00:46:16;6.50;95.00
210;DHT22;90;48.810;9.120;2023-11-18T00:48:43;6.50;95.00
210;DHT22;90;48.810;9.120;2023-11-18T00:51:10;6.60;94.70
210;DHT22;90;48.810;9.120;2023-11-18T00:53:36;6.60;94.60
210;DHT22;90;48.810;9.120;2023-11-18T00:56:05;6.60;94.40
210;DHT22;90;48.810;9.120;2023-11-18T00:58:35;6.60;94.50
210;DHT22;90;48.810;9.120;2023-11-18T01:01:05;6.70;94.40
210;DHT22;90;48.810;9.120;2023-11-18T01:03:32;6.70;93.90
210;DHT22;90;48.810;9.120;2023-11-18T01:06:00;6.70;94.20
210;DHT22;90;48.810;9.120;2023-11-18T01:08:27;6.70;94.40
210;DHT22;90;48.810;9.120;2023-11-18T01:10:54;6.70;94.50
210;DHT22;90;48.810;9.120;2023-11-18T01:13:22;6.70;94.70
210;DHT22;90;48.810;9.120;2023-11-18T01:15:49;6.70;94.80
210;DHT22;90;48.810;9.120;2023-11-18T01:18:15;6.70;94.70
210;DHT22;90;48.810;9.120;2023-11-18T01:20:43;6.80;94.60
210;DHT22;90;48.810;9.120;2023-11-18T01:23:09;6.70;94.50
210;DHT22;90;48.810;9.120;2023-11-18T01:25:36;6.80;94.50
210;DHT22;90;48.810;9.120;2023-11-18T01:28:03;6.80;94.40
210;DHT22;90;48.810;9.120;2023-11-18T01:30:31;6.70;94.70
210;DHT22;90;48.810;9.120;2023-11-18T01:32:59;6.70;94.80
210;DHT22;90;48.810;9.120;2023-11-18T01:35:26;6.70;94.60
210;DHT22;90;48.810;9.120;2023-11-18T01:37:53;6.60;94.40
210;DHT22;90;48.810;9.120;2023-11-18T01:40:20;6.60;94.50
210;DHT22;90;48.810;9.120;2023-11-18T01:42:47;6.70;94.60
210;DHT22;90;48.810;9.120;2023-11-18T01:45:13;6.80;93.90
210;DHT22;90;48.810;9.120;2023-11-18T01:47:44;6.80;93.70
210;DHT22;90;48.810;9.120;2023-11-18T01:50:12;6.90;93.60
210;DHT22;90;48.810;9.120;2023-11-18T01:52:40;6.90;93.60
210;DHT22;90;48.810;9.120;2023-11-18T01:55:08;6.80;93.70
210;DHT22;90;48.810;9.120;2023-11-18T01:57:35;6.80;93.60
210;DHT22;90;48.810;9.120;2023-11-18T02:00:03;6.80;93.30
210;DHT22;90;48.810;9.120;2023-11-18T02:02:32;6.80;93.10
210;DHT22;90;48.810;9.120;2023-11-18T02:05:01;6.80;93.00
210;DHT22;90;48.810;9.120;2023-11-18T02:07:31;6.90;93.20
210;DHT22;90;48.810;9.120;2023-11-18T02:09:59;6.90;92.80
210;DHT22;90;48.810;9.120;2023-11-18T02:12:29;6.90;92.80
210;DHT22;90;48.810;9.120;2023-11-18T02:15:00;6.90;92.90
210;DHT22;90;48.810;9.120;2023-11-18T02:17:29;6.90;92.90
210;DHT22;90;48.810;9.120;2023-11-18T02:19:57;6.90;93.00
210;DHT22;90;48.810;9.120;2023-11-18T02:22:26;6.90;93.10
210;DHT22;90;48.810;9.120;2023-11-18T02:24:53;6.90;93.20
210;DHT22;90;48.810;9.120;2023-11-18T02:27:22;6.90;93.30
210;DHT22;90;48.810;9.120;2023-11-18T02:29:50;6.90;93.30
210;DHT22;90;48.810;9.120;2023-11-18T02:32:20;6.90;93.30
210;DHT22;90;48.810;9.120;2023-11-18T02:34:53;6.90;93.30
210;DHT22;90;48.810;9.120;2023-11-18T02:37:23;6.80;93.50
210;DHT22;90;48.810;9.120;2023-11-18T02:39:55;6.80;93.60
210;DHT22;90;48.810;9.120;2023-11-18T02:42:26;6.80;93.60
210;DHT22;90;48.810;9.120;2023-11-18T02:44:53;6.80;93.80
210;DHT22;90;48.810;9.120;2023-11-18T02:47:25;6.70;94.20
210;DHT22;90;48.810;9.120;2023-11-18T02:49:54;6.70;94.40
210;DHT22;90;48.810;9.120;2023-11-18T02:52:21;6.70;94.00
210;DHT22;90;48.810;9.120;2023-11-18T02:54:48;6.60;94.00
210;DHT22;90;48.810;9.120;2023-11-18T02:57:15;6.60;94.00
210;DHT22;90;48.810;9.120;2023-11-18T02:59:43;6.50;94.40
210;DHT22;90;48.810;9.120;2023-11-18T03:02:12;6.60;94.50
210;DHT22;90;48.810;9.120;2023-11-18T03:04:39;6.60;94.20
210;DHT22;90;48.810;9.120;2023-11-18T03:07:08;6.60;93.90
210;DHT22;90;48.810;9.120;2023-11-18T03:09:35;6.60;93.60
210;DHT22;90;48.810;9.120;2023-11-18T03:12:05;6.70;93.50
210;DHT22;90;48.810;9.120;2023-11-18T03:14:33;6.70;93.30
210;DHT22;90;48.810;9.120;2023-11-18T03:17:01;6.70;93.20
210;DHT22;90;48.810;9.120;2023-11-18T03:19:31;6.60;93.30
210;DHT22;90;48.810;9.120;2023-11-18T03:21:59;6.70;93.10
210;DHT22;90;48.810;9.120;2023-11-18T03:24:25;6.70;92.80
210;DHT22;90;48.810;9.120;2023-11-18T03:26:54;6.70;92.70
210;DHT22;90;48.810;9.120;2023-11-18T03:29:20;6.60;92.70
210;DHT22;90;48.810;9.120;2023-11-18T03:31:48;6.60;92.90
210;DHT22;90;48.810;9.120;2023-11-18T03:34:16;6.60;92.80
210;DHT22;90;48.810;9.120;2023-11-18T03:36:45;6.50;92.70
210;DHT22;90;48.810;9.120;2023-11-18T03:39:12;6.50;92.90
210;DHT22;90;48.810;9.120;2023-11-18T03:41:39;6.50;92.90
210;DHT22;90;48.810;9.120;2023-11-18T03:44:06;6.50;93.10
210;DHT22;90;48.810;9.120;2023-11-18T03:46:33;6.50;93.00
210;DHT22;90;48.810;9.120;2023-11-18T03:49:00;6.40;93.10
210;DHT22;90;48.810;9.120;2023-11-18T03:51:28;6.40;93.10
210;DHT22;90;48.810;9.120;2023-11-18T03:53:55;6.30;93.40
210;DHT22;90;48.810;9.120;2023-11-18T03:56:22;6.40;93.40
210;DHT22;90;48.810;9.120;2023-11-18T03:58:49;6.40;93.20
210;DHT22;90;48.810;9.120;2023-11-18T04:01:20;6.40;93.10
210;DHT22;90;48.810;9.120;2023-11-18T04:03:47;6.40;93.10
210;DHT22;90;48.810;9.120;2023-11-18T04:06:13;6.40;93.00
210;DHT22;90;48.810;9.120;2023-11-18T04:08:44;6.40;93.10
210;DHT22;90;48.810;9.120;2023-11-18T04:11:11;6.30;93.10
210;DHT22;90;48.810;9.120;2023-11-18T04:13:39;6.30;93.10
210;DHT22;90;48.810;9.120;2023-11-18T04:16:06;6.30;93.20
210;DHT22;90;48.810;9.120;2023-11-18T04:18:33;6.30;93.00
210;DHT22;90;48.810;9.120;2023-11-18T04:20:59;6.30;93.10
210;DHT22;90;48.810;9.120;2023-11-18T04:23:26;6.30;93.00
210;DHT22;90;48.810;9.120;2023-11-18T04:25:54;6.20;93.20
210;DHT22;90;48.810;9.120;2023-11-18T04:28:21;6.30;93.20
210;DHT22;90;48.810;9.120;2023-11-18T04:30:48;6.20;92.80
210;DHT22;90;48.810;9.120;2023-11-18T04:33:15;6.20;93.00
210;DHT22;90;48.810;9.120;2023-11-18T04:35:41;6.20;93.10
210;DHT22;90;48.810;9.120;2023-11-18T04:38:08;6.20;92.90
210;DHT22;90;48.810;9.120;2023-11-18T04:40:35;6.20;92.90
210;DHT22;90;48.810;9.120;2023-11-18T04:43:05;6.20;93.00
210;DHT22;90;48.810;9.120;2023-11-18T04:45:32;6.10;92.90
210;DHT22;90;48.810;9.120;2023-11-18T04:47:59;6.10;93.10
210;DHT22;90;48.810;9.120;2023-11-18T04:50:26;6.20;93.00
210;DHT22;90;48.810;9.120;2023-11-18T04:52:54;6.20;92.70
210;DHT22;90;48.810;9.120;2023-11-18T04:55:21;6.10;92.90
210;DHT22;90;48.810;9.120;2023-11-18T04:57:48;6.20;92.90
210;DHT22;90;48.810;9.120;2023-11-18T05:00:16;6.20;92.60
210;DHT22;90;48.810;9.120;2023-11-18T05:02:45;6.20;92.40
210;DHT22;90;48.810;9.120;2023-11-18T05:05:13;6.20;92.60
210;DHT22;90;48.810;9.120;2023-11-18T05:07:40;6.20;92.50
210;DHT22;90;48.810;9.120;2023-11-18T05:10:08;6.20;92.10
210;DHT22;90;48.810;9.120;2023-11-18T05:12:35;6.20;92.10
210;DHT22;90;48.810;9.120;2023-11-18T05:15:02;6.10;92.40
210;DHT22;90;48.810;9.120;2023-11-18T05:17:31;6.10;92.40
210;DHT22;90;48.810;9.120;2023-11-18T05:19:58;6.20;92.20
210;DHT22;90;48.810;9.120;2023-11-18T05:22:26;6.20;91.90
210;DHT22;90;48.810;9.120;2023-11-18T05:24:52;6.20;91.90
210;DHT22;90;48.810;9.120;2023-11-18T05:27:19;6.10;91.80
210;DHT22;90;48.810;9.120;2023-11-18T05:29:46;6.00;91.90
210;DHT22;90;48.810;9.120;2023-11-18T05:32:19;6.00;92.00
210;DHT22;90;48.810;9.120;2023-11-18T05:34:48;5.90;92.30
210;DHT22;90;48.810;9.120;2023-11-18T05:37:15;6.00;92.50
210;DHT22;90;48.810;9.120;2023-11-18T05:39:43;6.00;92.20
210;DHT22;90;48.810;9.120;2023-11-18T05:42:11;6.00;92.20
210;DHT22;90;48.810;9.120;2023-11-18T05:44:37;5.90;92.30
210;DHT22;90;48.810;9.120;2023-11-18T05:47:05;6.00;92.80
210;DHT22;90;48.810;9.120;2023-11-18T05:49:31;6.00;92.50
210;DHT22;90;48.810;9.120;2023-11-18T05:51:59;6.00;92.80
210;DHT22;90;48.810;9.120;2023-11-18T05:54:26;6.00;92.60
210;DHT22;90;48.810;9.120;2023-11-18T05:56:53;6.10;92.40
210;DHT22;90;48.810;9.120;2023-11-18T05:59:20;6.00;92.20
210;DHT22;90;48.810;9.120;2023-11-18T06:01:47;6.10;92.00
210;DHT22;90;48.810;9.120;2023-11-18T06:04:14;6.00;92.00
210;DHT22;90;48.810;9.120;2023-11-18T06:06:41;6.10;92.10
210;DHT22;90;48.810;9.120;2023-11-18T06:09:09;6.00;92.00
210;DHT22;90;48.810;9.120;2023-11-18T06:11:43;6.10;92.00
210;DHT22;90;48.810;9.120;2023-11-18T06:14:10;6.10;91.90
210;DHT22;90;48.810;9.120;2023-11-18T06:16:38;6.10;91.80
210;DHT22;90;48.810;9.120;2023-11-18T06:19:06;6.10;91.60
210;DHT22;90;48.810;9.120;2023-11-18T06:21:33;6.00;91.50
210;DHT22;90;48.810;9.120;2023-11-18T06:24:01;6.10;91.20
210;DHT22;90;48.810;9.120;2023-11-18T06:26:30;6.10;91.10
210;DHT22;90;48.810;9.120;2023-11-18T06:28:57;6.00;91.30
210;DHT22;90;48.810;9.120;2023-11-18T06:31:25;6.00;91.40
210;DHT22;90;48.810;9.120;2023-11-18T06:33:52;6.00;91.50
210;DHT22;90;48.810;9.120;2023-11-18T06:36:19;6.00;91.30
210;DHT22;90;48.810;9.120;2023-11-18T06:38:48;5.90;91.40
210;DHT22;90;48.810;9.120;2023-11-18T06:41:15;5.90;91.50
210;DHT22;90;48.810;9.120;2023-11-18T06:43:45;5.80;91.60
210;DHT22;90;48.810;9.120;2023-11-18T06:46:23;5.80;92.10
210;DHT22;90;48.810;9.120;2023-11-18T06:48:51;5.80;92.10
210;DHT22;90;48.810;9.120;2023-11-18T06:51:19;5.90;92.00
210;DHT22;90;48.810;9.120;2023-11-18T06:53:49;6.00;91.40
210;DHT22;90;48.810;9.120;2023-11-18T06:56:15;5.90;91.20
210;DHT22;90;48.810;9.120;2023-11-18T06:58:43;5.80;91.30
210;DHT22;90;48.810;9.120;2023-11-18T07:01:12;5.80;91.30
210;DHT22;90;48.810;9.120;2023-11-18T07:03:40;5.80;90.90
210;DHT22;90;48.810;9.120;2023-11-18T07:06:08;5.70;91.00
210;DHT22;90;48.810;9.120;2023-11-18T07:08:35;5.70;91.10
210;DHT22;90;48.810;9.120;2023-11-18T07:11:02;5.80;90.90
210;DHT22;90;48.810;9.120;2023-11-18T07:13:29;5.70;91.30
210;DHT22;90;48.810;9.120;2023-11-18T07:15:57;5.70;91.70
210;DHT22;90;48.810;9.120;2023-11-18T07:18:24;5.70;92.00
210;DHT22;90;48.810;9.120;2023-11-18T07:20:51;5.90;91.90
210;DHT22;90;48.810;9.120;2023-11-18T07:23:18;6.00;91.70
210;DHT22;90;48.810;9.120;2023-11-18T07:25:45;6.00;91.30
210;DHT22;90;48.810;9.120;2023-11-18T07:28:12;6.10;90.90
210;DHT22;90;48.810;9.120;2023-11-18T07:30:40;6.10;90.80
210;DHT22;90;48.810;9.120;2023-11-18T07:33:09;6.20;90.80
210;DHT22;90;48.810;9.120;2023-11-18T07:35:36;6.20;90.70
210;DHT22;90;48.810;9.120;2023-11-18T07:38:03;6.20;90.70
210;DHT22;90;48.810;9.120;2023-11-18T07:40:32;6.20;90.90
210;DHT22;90;48.810;9.120;2023-11-18T07:42:59;6.30;90.90
210;DHT22;90;48.810;9.120;2023-11-18T07:45:28;6.30;91.00
210;DHT22;90;48.810;9.120;2023-11-18T07:47:55;6.40;91.20
210;DHT22;90;48.810;9.120;2023-11-18T07:50:24;6.40;91.20
210;DHT22;90;48.810;9.120;2023-11-18T07:52:52;6.50;91.10
210;DHT22;90;48.810;9.120;2023-11-18T07:55:18;6.50;91.00
210;DHT22;90;48.810;9.120;2023-11-18T07:57:45;6.60;90.70
210;DHT22;90;48.810;9.120;2023-11-18T08:00:13;6.60;90.60
210;DHT22;90;48.810;9.120;2023-11-18T08:02:40;6.60;90.60
210;DHT22;90;48.810;9.120;2023-11-18T08:05:07;6.60;90.60
210;DHT22;90;48.810;9.120;2023-11-18T08:07:35;6.60;90.50
210;DHT22;90;48.810;9.120;2023-11-18T08:10:04;6.70;90.40
210;DHT22;90;48.810;9.120;2023-11-18T08:12:31;6.70;90.30
210;DHT22;90;48.810;9.120;2023-11-18T08:14:58;6.70;90.10
210;DHT22;90;48.810;9.120;2023-11-18T08:17:24;6.70;90.10
210;DHT22;90;48.810;9.120;2023-11-18T08:19:51;6.80;90.10
210;DHT22;90;48.810;9.120;2023-11-18T08:22:18;6.80;90.10
210;DHT22;90;48.810;9.120;2023-11-18T08:24:49;6.90;90.10
210;DHT22;90;48.810;9.120;2023-11-18T08:27:17;6.90;90.00
210;DHT22;90;48.810;9.120;2023-11-18T08:29:44;6.90;89.80
210;DHT22;90;48.810;9.120;2023-11-18T08:32:11;6.90;89.70
210;DHT22;90;48.810;9.120;2023-11-18T08:34:38;6.90;89.50
210;DHT22;90;48.810;9.120;2023-11-18T08:37:06;6.90;90.00
210;DHT22;90;48.810;9.120;2023-11-18T08:39:32;6.90;89.40
210;DHT22;90;48.810;9.120;2023-11-18T08:42:02;6.80;88.70
210;DHT22;90;48.810;9.120;2023-11-18T08:44:29;7.10;93.00
210;DHT22;90;48.810;9.120;2023-11-18T08:46:57;7.20;87.90
210;DHT22;90;48.810;9.120;2023-11-18T08:49:24;7.40;86.60
210;DHT22;90;48.810;9.120;2023-11-18T08:51:55;7.30;87.10
210;DHT22;90;48.810;9.120;2023-11-18T08:54:23;7.30;86.60
210;DHT22;90;48.810;9.120;2023-11-18T08:56:51;7.50;90.70
210;DHT22;90;48.810;9.120;2023-11-18T08:59:21;7.50;88.10
210;DHT22;90;48.810;9.120;2023-11-18T09:01:50;7.60;87.00
210;DHT22;90;48.810;9.120;2023-11-18T09:04:21;7.50;86.90
210;DHT22;90;48.810;9.120;2023-11-18T09:06:49;7.50;86.80
210;DHT22;90;48.810;9.120;2023-11-18T09:09:17;7.50;87.10
210;DHT22;90;48.810;9.120;2023-11-18T09:11:52;7.60;86.60
210;DHT22;90;48.810;9.120;2023-11-18T09:14:20;7.60;86.30
210;DHT22;90;48.810;9.120;2023-11-18T09:16:47;7.60;86.70
210;DHT22;90;48.810;9.120;2023-11-18T09:19:14;7.70;86.40
210;DHT22;90;48.810;9.120;2023-11-18T09:21:42;7.70;86.40
210;DHT22;90;48.810;9.120;2023-11-18T09:24:10;7.70;87.10
210;DHT22;90;48.810;9.120;2023-11-18T09:26:38;7.70;87.40
210;DHT22;90;48.810;9.120;2023-11-18T09:29:05;7.70;87.10
210;DHT22;90;48.810;9.120;2023-11-18T09:31:35;7.80;87.10
210;DHT22;90;48.810;9.120;2023-11-18T09:34:03;7.80;87.30
210;DHT22;90;48.810;9.120;2023-11-18T09:36:32;7.80;86.80
210;DHT22;90;48.810;9.120;2023-11-18T09:38:59;7.90;86.80
210;DHT22;90;48.810;9.120;2023-11-18T09:41:28;8.00;86.10
210;DHT22;90;48.810;9.120;2023-11-18T09:43:55;8.00;85.90
210;DHT22;90;48.810;9.120;2023-11-18T09:46:28;8.00;85.70
210;DHT22;90;48.810;9.120;2023-11-18T09:49:06;8.10;86.30
210;DHT22;90;48.810;9.120;2023-11-18T09:51:42;8.10;86.60
210;DHT22;90;48.810;9.120;2023-11-18T09:54:18;8.10;85.90
210;DHT22;90;48.810;9.120;2023-11-18T09:56:56;8.10;86.40
210;DHT22;90;48.810;9.120;2023-11-18T09:59:39;8.20;87.00
210;DHT22;90;48.810;9.120;2023-11-18T10:02:10;8.20;86.50
210;DHT22;90;48.810;9.120;2023-11-18T10:04:39;8.30;86.70
210;DHT22;90;48.810;9.120;2023-11-18T10:07:06;8.30;85.70
210;DHT22;90;48.810;9.120;2023-11-18T10:09:35;8.30;86.10
210;DHT22;90;48.810;9.120;2023-11-18T10:12:05;8.40;85.70
210;DHT22;90;48.810;9.120;2023-11-18T10:14:33;8.40;85.50
210;DHT22;90;48.810;9.120;2023-11-18T10:17:03;8.50;85.80
210;DHT22;90;48.810;9.120;2023-11-18T10:19:51;8.50;85.40
210;DHT22;90;48.810;9.120;2023-11-18T10:22:22;8.60;85.20
210;DHT22;90;48.810;9.120;2023-11-18T10:24:50;9.40;96.10
210;DHT22;90;48.810;9.120;2023-11-18T10:27:20;9.50;87.80
210;DHT22;90;48.810;9.120;2023-11-18T10:29:48;9.50;85.60
210;DHT22;90;48.810;9.120;2023-11-18T10:32:17;9.40;85.00
210;DHT22;90;48.810;9.120;2023-11-18T10:34:47;9.20;85.00
210;DHT22;90;48.810;9.120;2023-11-18T10:37:16;9.30;86.60
210;DHT22;90;48.810;9.120;2023-11-18T10:39:46;9.30;83.80
210;DHT22;90;48.810;9.120;2023-11-18T10:42:13;9.30;83.80
210;DHT22;90;48.810;9.120;2023-11-18T10:44:54;9.20;83.90
210;DHT22;90;48.810;9.120;2023-11-18T10:47:21;9.20;83.80
210;DHT22;90;48.810;9.120;2023-11-18T10:49:50;9.10;82.40
210;DHT22;90;48.810;9.120;2023-11-18T10:52:19;9.00;83.30
210;DHT22;90;48.810;9.120;2023-11-18T10:54:50;9.00;83.40
210;DHT22;90;48.810;9.120;2023-11-18T10:57:20;9.00;83.10
210;DHT22;90;48.810;9.120;2023-11-18T10:59:58;9.00;83.60
210;DHT22;90;48.810;9.120;2023-11-18T11:02:27;9.00;83.00
210;DHT22;90;48.810;9.120;2023-11-18T11:05:00;9.00;83.00
210;DHT22;90;48.810;9.120;2023-11-18T11:07:29;9.00;83.10
210;DHT22;90;48.810;9.120;2023-11-18T11:09:57;9.00;84.40
210;DHT22;90;48.810;9.120;2023-11-18T11:12:25;9.00;85.30
210;DHT22;90;48.810;9.120;2023-11-18T11:14:59;9.00;85.40
210;DHT22;90;48.810;9.120;2023-11-18T11:17:30;9.00;85.20
210;DHT22;90;48.810;9.120;2023-11-18T11:20:04;9.00;84.40
210;DHT22;90;48.810;9.120;2023-11-18T11:22:49;9.10;84.70
210;DHT22;90;48.810;9.120;2023-11-18T11:25:22;9.10;85.20
210;DHT22;90;48.810;9.120;2023-11-18T11:27:57;9.10;84.50
210;DHT22;90;48.810;9.120;2023-11-18T11:30:29;9.10;84.70
210;DHT22;90;48.810;9.120;2023-11-18T11:33:01;9.10;84.60
210;DHT22;90;48.810;9.120;2023-11-18T11:35:33;9.10;84.60
210;DHT22;90;48.810;9.120;2023-11-18T11:38:02;9.10;84.40
210;DHT22;90;48.810;9.120;2023-11-18T11:40:35;9.00;84.60
210;DHT22;90;48.810;9.120;2023-11-18T11:43:04;9.10;84.00
210;DHT22;90;48.810;9.120;2023-11-18T11:45:35;9.00;83.00
210;DHT22;90;48.810;9.120;2023-11-18T11:48:02;9.00;82.70
210;DHT22;90;48.810;9.120;2023-11-18T11:51:11;9.00;81.90
210;DHT22;90;48.810;9.120;2023-11-18T11:53:49;9.00;82.00
210;DHT22;90;48.810;9.120;2023-11-18T11:56:19;8.90;81.20
210;DHT22;90;48.810;9.120;2023-11-18T11:58:49;8.90;80.40
210;DHT22;90;48.810;9.120;2023-11-18T12:01:25;8.90;81.20
210;DHT22;90;48.810;9.120;2023-11-18T12:03:57;8.90;81.50
210;DHT22;90;48.810;9.120;2023-11-18T12:06:32;8.90;81.50
210;DHT22;90;48.810;9.120;2023-11-18T12:09:03;9.00;81.10
210;DHT22;90;48.810;9.120;2023-11-18T12:11:34;9.00;80.30
210;DHT22;90;48.810;9.120;2023-11-18T12:14:06;9.00;80.50
210;DHT22;90;48.810;9.120;2023-11-18T12:17:04;9.00;81.20
210;DHT22;90;48.810;9.120;2023-11-18T12:19:35;8.90;81.70
210;DHT22;90;48.810;9.120;2023-11-18T12:22:15;8.90;80.70
210;DHT22;90;48.810;9.120;2023-11-18T12:24:45;8.90;81.00
210;DHT22;90;48.810;9.120;2023-11-18T12:27:12;8.90;80.90
210;DHT22;90;48.810;9.120;2023-11-18T12:29:41;8.90;81.10
210;DHT22;90;48.810;9.120;2023-11-18T12:32:10;8.80;79.80
210;DHT22;90;48.810;9.120;2023-11-18T12:34:52;8.80;79.70
210;DHT22;90;48.810;9.120;2023-11-18T12:37:48;8.80;80.20
210;DHT22;90;48.810;9.120;2023-11-18T12:40:41;8.70;80.60
210;DHT22;90;48.810;9.120;2023-11-18T12:43:15;8.70;81.50
210;DHT22;90;48.810;9.120;2023-11-18T12:49:15;8.60;80.60
210;DHT22;90;48.810;9.120;2023-11-18T12:51:42;8.60;80.10
210;DHT22;90;48.810;9.120;2023-11-18T12:54:10;8.50;80.10
210;DHT22;90;48.810;9.120;2023-11-18T12:56:38;8.50;80.20
210;DHT22;90;48.810;9.120;2023-11-18T12:59:05;8.50;80.70
210;DHT22;90;48.810;9.120;2023-11-18T13:01:32;8.40;81.00
210;DHT22;90;48.810;9.120;2023-11-18T13:04:01;8.40;80.90
210;DHT22;90;48.810;9.120;2023-11-18T13:06:29;8.40;80.70
210;DHT22;90;48.810;9.120;2023-11-18T13:08:56;8.40;81.00
210;DHT22;90;48.810;9.120;2023-11-18T13:11:23;8.30;80.70
210;DHT22;90;48.810;9.120;2023-11-18T13:13:51;8.30;80.90
210;DHT22;90;48.810;9.120;2023-11-18T13:16:19;8.40;80.90
210;DHT22;90;48.810;9.120;2023-11-18T13:18:48;8.40;81.10
210;DHT22;90;48.810;9.120;2023-11-18T13:21:15;8.40;81.20
210;DHT22;90;48.810;9.120;2023-11-18T13:23:47;8.30;81.60
210;DHT22;90;48.810;9.120;2023-11-18T13:26:16;8.30;81.70
210;DHT22;90;48.810;9.120;2023-11-18T13:28:43;8.30;82.40
210;DHT22;90;48.810;9.120;2023-11-18T13:31:10;8.30;82.70
210;DHT22;90;48.810;9.120;2023-11-18T13:33:39;8.30;82.60
210;DHT22;90;48.810;9.120;2023-11-18T13:36:07;8.20;82.50
210;DHT22;90;48.810;9.120;2023-11-18T13:38:35;8.30;82.70
210;DHT22;90;48.810;9.120;2023-11-18T13:41:05;8.30;82.90
210;DHT22;90;48.810;9.120;2023-11-18T13:43:44;8.60;90.20
210;DHT22;90;48.810;9.120;2023-11-18T13:46:11;8.60;83.50
210;DHT22;90;48.810;9.120;2023-11-18T13:48:38;8.50;82.30
210;DHT22;90;48.810;9.120;2023-11-18T13:51:07;8.40;82.60
210;DHT22;90;48.810;9.120;2023-11-18T13:53:34;8.40;83.00
210;DHT22;90;48.810;9.120;2023-11-18T13:56:01;8.40;82.90
210;DHT22;90;48.810;9.120;2023-11-18T13:58:31;8.40;83.40
210;DHT22;90;48.810;9.120;2023-11-18T14:00:59;8.40;83.40
210;DHT22;90;48.810;9.120;2023-11-18T14:03:26;8.40;83.70
210;DHT22;90;48.810;9.120;2023-11-18T14:05:57;8.30;83.80
210;DHT22;90;48.810;9.120;2023-11-18T14:08:27;8.30;84.30
210;DHT22;90;48.810;9.120;2023-11-18T14:10:55;8.30;84.30
210;DHT22;90;48.810;9.120;2023-11-18T14:13:21;8.50;88.30
210;DHT22;90;48.810;9.120;2023-11-18T14:15:49;10.70;96.80
210;DHT22;90;48.810;9.120;2023-11-18T14:18:20;12.10;89.60
210;DHT22;90;48.810;9.120;2023-11-18T14:20:47;13.10;81.90
210;DHT22;90;48.810;9.120;2023-11-18T14:23:18;13.90;77.30
210;DHT22;90;48.810;9.120;2023-11-18T14:25:47;14.30;73.70
210;DHT22;90;48.810;9.120;2023-11-18T14:28:14;13.40;68.30
210;DHT22;90;48.810;9.120;2023-11-18T14:30:41;12.40;69.90
210;DHT22;90;48.810;9.120;2023-11-18T14:33:09;11.50;72.60
210;DHT22;90;48.810;9.120;2023-11-18T14:35:36;10.70;75.20
210;DHT22;90;48.810;9.120;2023-11-18T14:38:05;10.20;77.00
210;DHT22;90;48.810;9.120;2023-11-18T14:40:33;9.80;78.70
210;DHT22;90;48.810;9.120;2023-11-18T14:43:00;9.50;80.10
210;DHT22;90;48.810;9.120;2023-11-18T14:45:27;9.30;81.30
210;DHT22;90;48.810;9.120;2023-11-18T14:47:54;9.10;82.30
210;DHT22;90;48.810;9.120;2023-11-18T14:50:22;8.90;82.90
210;DHT22;90;48.810;9.120;2023-11-18T14:52:52;8.80;83.50
210;DHT22;90;48.810;9.120;2023-11-18T14:55:25;8.80;83.80
210;DHT22;90;48.810;9.120;2023-11-18T14:57:52;8.60;84.50
210;DHT22;90;48.810;9.120;2023-11-18T15:00:19;8.60;84.80
210;DHT22;90;48.810;9.120;2023-11-18T15:02:48;8.50;85.30
210;DHT22;90;48.810;9.120;2023-11-18T15:05:16;8.60;87.60
210;DHT22;90;48.810;9.120;2023-11-18T15:07:46;8.60;85.70
210;DHT22;90;48.810;9.120;2023-11-18T15:10:17;8.60;85.60
210;DHT22;90;48.810;9.120;2023-11-18T15:12:47;8.50;85.40
210;DHT22;90;48.810;9.120;2023-11-18T15:15:14;8.50;85.50
210;DHT22;90;48.810;9.120;2023-11-18T15:17:46;8.40;85.80
210;DHT22;90;48.810;9.120;2023-11-18T15:20:14;8.40;86.20
210;DHT22;90;48.810;9.120;2023-11-18T15:22:42;8.40;86.30
210;DHT22;90;48.810;9.120;2023-11-18T15:25:11;8.40;86.30
210;DHT22;90;48.810;9.120;2023-11-18T15:27:40;8.40;86.30
210;DHT22;90;48.810;9.120;2023-11-18T15:30:09;8.40;86.40
210;DHT22;90;48.810;9.120;2023-11-18T15:32:39;8.30;86.60
210;DHT22;90;48.810;9.120;2023-11-18T15:35:06;8.30;86.80
210;DHT22;90;48.810;9.120;2023-11-18T15:37:35;8.30;86.90
210;DHT22;90;48.810;9.120;2023-11-18T15:40:05;8.30;86.80
210;DHT22;90;48.810;9.120;2023-11-18T15:42:38;8.30;86.80
210;DHT22;90;48.810;9.120;2023-11-18T15:45:08;8.30;86.90
210;DHT22;90;48.810;9.120;2023-11-18T15:47:36;8.30;86.90
210;DHT22;90;48.810;9.120;2023-11-18T15:50:04;8.30;87.10
210;DHT22;90;48.810;9.120;2023-11-18T15:52:31;8.30;87.20
210;DHT22;90;48.810;9.120;2023-11-18T15:55:00;8.30;87.30
210;DHT22;90;48.810;9.120;2023-11-18T15:57:27;8.30;87.40
210;DHT22;90;48.810;9.120;2023-11-18T15:59:56;8.30;87.40
210;DHT22;90;48.810;9.120;2023-11-18T16:02:22;8.30;87.50
210;DHT22;90;48.810;9.120;2023-11-18T16:04:50;8.30;87.70
210;DHT22;90;48.810;9.120;2023-11-18T16:07:17;8.30;87.90
210;DHT22;90;48.810;9.120;2023-11-18T16:09:43;8.30;88.00
210;DHT22;90;48.810;9.120;2023-11-18T16:12:10;8.30;88.00
210;DHT22;90;48.810;9.120;2023-11-18T16:14:37;8.20;88.30
210;DHT22;90;48.810;9.120;2023-11-18T16:17:05;8.20;88.60
210;DHT22;90;48.810;9.120;2023-11-18T16:19:32;8.20;88.80
210;DHT22;90;48.810;9.120;2023-11-18T16:22:00;8.20;89.10
210;DHT22;90;48.810;9.120;2023-11-18T16:24:27;8.20;89.20
210;DHT22;90;48.810;9.120;2023-11-18T16:26:53;8.20;89.20
210;DHT22;90;48.810;9.120;2023-11-18T16:29:20;8.10;89.20
210;DHT22;90;48.810;9.120;2023-11-18T16:31:48;8.20;89.10
210;DHT22;90;48.810;9.120;2023-11-18T16:34:17;8.20;88.90
210;DHT22;90;48.810;9.120;2023-11-18T16:36:45;8.20;88.90
210;DHT22;90;48.810;9.120;2023-11-18T16:39:13;8.20;88.90
210;DHT22;90;48.810;9.120;2023-11-18T16:41:40;8.20;88.90
210;DHT22;90;48.810;9.120;2023-11-18T16:44:07;8.10;88.90
210;DHT22;90;48.810;9.120;2023-11-18T16:46:37;8.10;88.90
210;DHT22;90;48.810;9.120;2023-11-18T16:49:05;8.10;88.70
210;DHT22;90;48.810;9.120;2023-11-18T16:51:33;8.10;88.50
210;DHT22;90;48.810;9.120;2023-11-18T16:54:00;8.10;88.50
210;DHT22;90;48.810;9.120;2023-11-18T16:56:28;8.10;88.50
210;DHT22;90;48.810;9.120;2023-11-18T16:58:55;8.00;88.40
210;DHT22;90;48.810;9.120;2023-11-18T17:01:22;8.10;88.60
210;DHT22;90;48.810;9.120;2023-11-18T17:03:50;8.10;88.00
210;DHT22;90;48.810;9.120;2023-11-18T17:06:17;8.10;88.10
210;DHT22;90;48.810;9.120;2023-11-18T17:08:47;8.00;87.80
210;DHT22;90;48.810;9.120;2023-11-18T17:11:14;8.00;87.60
210;DHT22;90;48.810;9.120;2023-11-18T17:13:40;8.00;87.50
210;DHT22;90;48.810;9.120;2023-11-18T17:16:07;8.00;87.40
210;DHT22;90;48.810;9.120;2023-11-18T17:18:34;8.00;87.40
210;DHT22;90;48.810;9.120;2023-11-18T17:21:01;8.00;87.30
210;DHT22;90;48.810;9.120;2023-11-18T17:23:28;8.00;87.00